Terminal Aerodrome Forecast
Issued by NWS

Home | Current Version | Previous Version | Text Only | Print | Product List | Glossary On
Versions: 1 2 3 4 5 6 7 8 9 10 11 12 13 14 15 16 17
822
FTUS41 KLWX 051736
TAFMTN
TAF
KMTN 051736Z 0518/0618 31017G27KT P6SM BKN045
     FM052200 30012G20KT P6SM SCT045
     FM052300 30012G20KT P6SM FEW250
     FM060200 31007KT P6SM SKC
     FM060800 VRB03KT P6SM FEW250
     FM061700 20007KT P6SM SCT200=

USA.gov is the U.S. government's official web portal to all federal, state and local government web resources and services.